sensor_id;sensor_type;location;lat;lon;timestamp;P1;durP1;ratioP1;P2;durP2;ratioP2
24735;SDS011;12840;48.144;17.136;2023-01-29T00:01:18;13.57;;;6.60;;
24735;SDS011;12840;48.144;17.136;2023-01-29T00:03:45;12.53;;;7.17;;
24735;SDS011;12840;48.144;17.136;2023-01-29T00:06:13;13.17;;;7.03;;
24735;SDS011;12840;48.144;17.136;2023-01-29T00:08:42;13.27;;;7.10;;
24735;SDS011;12840;48.144;17.136;2023-01-29T00:11:09;11.27;;;6.50;;
24735;SDS011;12840;48.144;17.136;2023-01-29T00:13:38;11.77;;;6.60;;
24735;SDS011;12840;48.144;17.136;2023-01-29T00:16:05;12.63;;;6.97;;
24735;SDS011;12840;48.144;17.136;2023-01-29T00:18:33;13.97;;;6.93;;
24735;SDS011;12840;48.144;17.136;2023-01-29T00:21:07;11.33;;;6.30;;
24735;SDS011;12840;48.144;17.136;2023-01-29T00:23:34;13.83;;;6.73;;
24735;SDS011;12840;48.144;17.136;2023-01-29T00:26:03;13.77;;;7.23;;
24735;SDS011;12840;48.144;17.136;2023-01-29T00:28:31;12.77;;;6.87;;
24735;SDS011;12840;48.144;17.136;2023-01-29T00:31:05;14.70;;;7.90;;
24735;SDS011;12840;48.144;17.136;2023-01-29T00:33:32;14.00;;;7.90;;
24735;SDS011;12840;48.144;17.136;2023-01-29T00:36:01;12.97;;;7.23;;
24735;SDS011;12840;48.144;17.136;2023-01-29T00:38:28;14.63;;;7.60;;
24735;SDS011;12840;48.144;17.136;2023-01-29T00:40:56;13.63;;;7.60;;
24735;SDS011;12840;48.144;17.136;2023-01-29T00:43:42;13.93;;;7.13;;
24735;SDS011;12840;48.144;17.136;2023-01-29T00:46:27;12.53;;;7.40;;
24735;SDS011;12840;48.144;17.136;2023-01-29T00:48:55;15.07;;;7.30;;
24735;SDS011;12840;48.144;17.136;2023-01-29T00:51:22;14.67;;;7.13;;
24735;SDS011;12840;48.144;17.136;2023-01-29T00:53:50;11.33;;;6.40;;
24735;SDS011;12840;48.144;17.136;2023-01-29T00:56:18;11.23;;;6.57;;
24735;SDS011;12840;48.144;17.136;2023-01-29T00:58:50;10.40;;;6.50;;
24735;SDS011;12840;48.144;17.136;2023-01-29T01:01:17;9.80;;;5.97;;
24735;SDS011;12840;48.144;17.136;2023-01-29T01:04:05;11.23;;;6.27;;
24735;SDS011;12840;48.144;17.136;2023-01-29T01:06:31;9.47;;;5.63;;
24735;SDS011;12840;48.144;17.136;2023-01-29T01:08:59;9.63;;;6.00;;
24735;SDS011;12840;48.144;17.136;2023-01-29T01:11:44;8.47;;;5.43;;
24735;SDS011;12840;48.144;17.136;2023-01-29T01:14:13;8.53;;;5.40;;
24735;SDS011;12840;48.144;17.136;2023-01-29T01:16:40;9.57;;;5.53;;
24735;SDS011;12840;48.144;17.136;2023-01-29T01:19:08;9.87;;;5.70;;
24735;SDS011;12840;48.144;17.136;2023-01-29T01:21:35;8.87;;;5.50;;
24735;SDS011;12840;48.144;17.136;2023-01-29T01:24:03;9.63;;;5.90;;
24735;SDS011;12840;48.144;17.136;2023-01-29T01:26:31;9.87;;;5.60;;
24735;SDS011;12840;48.144;17.136;2023-01-29T01:28:58;10.40;;;5.60;;
24735;SDS011;12840;48.144;17.136;2023-01-29T01:31:27;9.43;;;5.30;;
24735;SDS011;12840;48.144;17.136;2023-01-29T01:33:55;9.83;;;6.03;;
24735;SDS011;12840;48.144;17.136;2023-01-29T01:36:22;9.23;;;5.73;;
24735;SDS011;12840;48.144;17.136;2023-01-29T01:38:50;9.73;;;5.70;;
24735;SDS011;12840;48.144;17.136;2023-01-29T01:41:19;12.17;;;6.43;;
24735;SDS011;12840;48.144;17.136;2023-01-29T01:43:48;9.57;;;5.50;;
24735;SDS011;12840;48.144;17.136;2023-01-29T01:46:16;9.57;;;6.00;;
24735;SDS011;12840;48.144;17.136;2023-01-29T01:48:45;10.30;;;6.40;;
24735;SDS011;12840;48.144;17.136;2023-01-29T01:51:16;11.90;;;6.70;;
24735;SDS011;12840;48.144;17.136;2023-01-29T01:53:46;11.77;;;6.77;;
24735;SDS011;12840;48.144;17.136;2023-01-29T01:56:15;11.23;;;6.63;;
24735;SDS011;12840;48.144;17.136;2023-01-29T01:58:46;11.90;;;6.90;;
24735;SDS011;12840;48.144;17.136;2023-01-29T02:01:15;11.87;;;6.87;;
24735;SDS011;12840;48.144;17.136;2023-01-29T02:03:48;12.40;;;7.07;;
24735;SDS011;12840;48.144;17.136;2023-01-29T02:06:34;11.67;;;6.73;;
24735;SDS011;12840;48.144;17.136;2023-01-29T02:09:21;11.83;;;6.70;;
24735;SDS011;12840;48.144;17.136;2023-01-29T02:11:59;11.53;;;6.87;;
24735;SDS011;12840;48.144;17.136;2023-01-29T02:14:27;12.70;;;6.83;;
24735;SDS011;12840;48.144;17.136;2023-01-29T02:16:56;11.50;;;6.70;;
24735;SDS011;12840;48.144;17.136;2023-01-29T02:19:27;13.20;;;6.83;;
24735;SDS011;12840;48.144;17.136;2023-01-29T02:24:50;13.47;;;7.10;;
24735;SDS011;12840;48.144;17.136;2023-01-29T02:27:23;12.03;;;7.00;;
24735;SDS011;12840;48.144;17.136;2023-01-29T02:29:55;13.07;;;7.57;;
24735;SDS011;12840;48.144;17.136;2023-01-29T02:32:29;11.30;;;7.30;;
24735;SDS011;12840;48.144;17.136;2023-01-29T02:35:04;13.80;;;7.70;;
24735;SDS011;12840;48.144;17.136;2023-01-29T02:37:54;16.17;;;8.57;;
24735;SDS011;12840;48.144;17.136;2023-01-29T02:40:25;14.07;;;8.33;;
24735;SDS011;12840;48.144;17.136;2023-01-29T02:42:56;14.57;;;8.10;;
24735;SDS011;12840;48.144;17.136;2023-01-29T02:45:28;15.70;;;8.33;;
24735;SDS011;12840;48.144;17.136;2023-01-29T02:47:59;14.10;;;8.10;;
24735;SDS011;12840;48.144;17.136;2023-01-29T02:50:28;14.40;;;8.57;;
24735;SDS011;12840;48.144;17.136;2023-01-29T02:52:59;16.33;;;8.90;;
24735;SDS011;12840;48.144;17.136;2023-01-29T02:55:29;18.77;;;9.20;;
24735;SDS011;12840;48.144;17.136;2023-01-29T02:57:59;17.30;;;8.87;;
24735;SDS011;12840;48.144;17.136;2023-01-29T03:00:33;15.33;;;8.83;;
24735;SDS011;12840;48.144;17.136;2023-01-29T03:03:03;14.83;;;8.53;;
24735;SDS011;12840;48.144;17.136;2023-01-29T03:05:33;16.50;;;9.30;;
24735;SDS011;12840;48.144;17.136;2023-01-29T03:08:08;16.60;;;8.97;;
24735;SDS011;12840;48.144;17.136;2023-01-29T03:10:38;16.37;;;9.17;;
24735;SDS011;12840;48.144;17.136;2023-01-29T03:13:08;15.77;;;8.93;;
24735;SDS011;12840;48.144;17.136;2023-01-29T03:15:41;15.90;;;8.63;;
24735;SDS011;12840;48.144;17.136;2023-01-29T03:18:12;16.97;;;9.27;;
24735;SDS011;12840;48.144;17.136;2023-01-29T03:20:42;16.70;;;9.60;;
24735;SDS011;12840;48.144;17.136;2023-01-29T03:23:13;15.97;;;9.10;;
24735;SDS011;12840;48.144;17.136;2023-01-29T03:25:44;16.43;;;8.93;;
24735;SDS011;12840;48.144;17.136;2023-01-29T03:28:29;19.73;;;9.80;;
24735;SDS011;12840;48.144;17.136;2023-01-29T03:31:17;17.17;;;8.63;;
24735;SDS011;12840;48.144;17.136;2023-01-29T03:34:04;16.43;;;8.80;;
24735;SDS011;12840;48.144;17.136;2023-01-29T03:36:33;15.27;;;8.70;;
24735;SDS011;12840;48.144;17.136;2023-01-29T03:39:04;14.63;;;8.53;;
24735;SDS011;12840;48.144;17.136;2023-01-29T03:41:32;16.57;;;8.93;;
24735;SDS011;12840;48.144;17.136;2023-01-29T03:44:03;15.87;;;8.73;;
24735;SDS011;12840;48.144;17.136;2023-01-29T03:46:37;15.17;;;8.40;;
24735;SDS011;12840;48.144;17.136;2023-01-29T03:49:08;17.27;;;9.50;;
24735;SDS011;12840;48.144;17.136;2023-01-29T03:51:39;16.30;;;8.67;;
24735;SDS011;12840;48.144;17.136;2023-01-29T03:54:11;18.77;;;9.67;;
24735;SDS011;12840;48.144;17.136;2023-01-29T03:56:44;16.90;;;10.00;;
24735;SDS011;12840;48.144;17.136;2023-01-29T03:59:19;16.57;;;9.10;;
24735;SDS011;12840;48.144;17.136;2023-01-29T04:01:50;15.63;;;8.97;;
24735;SDS011;12840;48.144;17.136;2023-01-29T04:04:21;16.53;;;9.33;;
24735;SDS011;12840;48.144;17.136;2023-01-29T04:06:50;17.73;;;10.13;;
24735;SDS011;12840;48.144;17.136;2023-01-29T04:09:18;18.23;;;10.30;;
24735;SDS011;12840;48.144;17.136;2023-01-29T04:11:49;18.13;;;9.70;;
24735;SDS011;12840;48.144;17.136;2023-01-29T04:14:20;17.37;;;10.03;;
24735;SDS011;12840;48.144;17.136;2023-01-29T04:16:49;19.40;;;10.37;;
24735;SDS011;12840;48.144;17.136;2023-01-29T04:19:19;18.07;;;9.87;;
24735;SDS011;12840;48.144;17.136;2023-01-29T04:21:47;16.83;;;9.97;;
24735;SDS011;12840;48.144;17.136;2023-01-29T04:24:15;18.83;;;10.30;;
24735;SDS011;12840;48.144;17.136;2023-01-29T04:26:49;18.80;;;10.50;;
24735;SDS011;12840;48.144;17.136;2023-01-29T04:29:25;19.17;;;9.97;;
24735;SDS011;12840;48.144;17.136;2023-01-29T04:31:57;19.63;;;10.33;;
24735;SDS011;12840;48.144;17.136;2023-01-29T04:34:28;20.27;;;10.40;;
24735;SDS011;12840;48.144;17.136;2023-01-29T04:37:03;18.73;;;9.67;;
24735;SDS011;12840;48.144;17.136;2023-01-29T04:39:39;17.73;;;9.73;;
24735;SDS011;12840;48.144;17.136;2023-01-29T04:42:11;19.10;;;10.10;;
24735;SDS011;12840;48.144;17.136;2023-01-29T04:44:41;16.17;;;9.60;;
24735;SDS011;12840;48.144;17.136;2023-01-29T04:47:13;15.67;;;8.57;;
24735;SDS011;12840;48.144;17.136;2023-01-29T04:49:45;17.07;;;9.20;;
24735;SDS011;12840;48.144;17.136;2023-01-29T04:52:19;15.90;;;9.60;;
24735;SDS011;12840;48.144;17.136;2023-01-29T04:54:53;16.53;;;9.40;;
24735;SDS011;12840;48.144;17.136;2023-01-29T04:57:23;16.10;;;9.10;;
24735;SDS011;12840;48.144;17.136;2023-01-29T04:59:54;16.90;;;9.23;;
24735;SDS011;12840;48.144;17.136;2023-01-29T05:02:23;16.33;;;9.40;;
24735;SDS011;12840;48.144;17.136;2023-01-29T05:04:54;14.43;;;8.53;;
24735;SDS011;12840;48.144;17.136;2023-01-29T05:07:23;16.63;;;8.57;;
24735;SDS011;12840;48.144;17.136;2023-01-29T05:09:52;16.33;;;8.60;;
24735;SDS011;12840;48.144;17.136;2023-01-29T05:12:19;15.07;;;8.80;;
24735;SDS011;12840;48.144;17.136;2023-01-29T05:14:48;13.90;;;8.20;;
24735;SDS011;12840;48.144;17.136;2023-01-29T05:17:17;15.97;;;8.67;;
24735;SDS011;12840;48.144;17.136;2023-01-29T05:19:46;15.20;;;8.10;;
24735;SDS011;12840;48.144;17.136;2023-01-29T05:22:15;15.40;;;8.33;;
24735;SDS011;12840;48.144;17.136;2023-01-29T05:24:46;12.90;;;7.97;;
24735;SDS011;12840;48.144;17.136;2023-01-29T05:27:15;15.73;;;8.13;;
24735;SDS011;12840;48.144;17.136;2023-01-29T05:30:01;13.53;;;8.00;;
24735;SDS011;12840;48.144;17.136;2023-01-29T05:32:28;11.60;;;7.17;;
24735;SDS011;12840;48.144;17.136;2023-01-29T05:34:56;12.37;;;7.33;;
24735;SDS011;12840;48.144;17.136;2023-01-29T05:37:25;12.47;;;7.33;;
24735;SDS011;12840;48.144;17.136;2023-01-29T05:39:52;12.23;;;7.30;;
24735;SDS011;12840;48.144;17.136;2023-01-29T05:42:20;11.63;;;7.17;;
24735;SDS011;12840;48.144;17.136;2023-01-29T05:44:48;12.47;;;7.47;;
24735;SDS011;12840;48.144;17.136;2023-01-29T05:47:17;12.40;;;7.47;;
24735;SDS011;12840;48.144;17.136;2023-01-29T05:49:45;10.97;;;7.07;;
24735;SDS011;12840;48.144;17.136;2023-01-29T05:52:12;13.73;;;7.70;;
24735;SDS011;12840;48.144;17.136;2023-01-29T05:54:41;13.20;;;7.40;;
24735;SDS011;12840;48.144;17.136;2023-01-29T05:57:09;14.63;;;7.37;;
24735;SDS011;12840;48.144;17.136;2023-01-29T05:59:36;12.87;;;7.43;;
24735;SDS011;12840;48.144;17.136;2023-01-29T06:02:04;13.70;;;7.60;;
24735;SDS011;12840;48.144;17.136;2023-01-29T06:04:31;12.53;;;7.47;;
24735;SDS011;12840;48.144;17.136;2023-01-29T06:06:59;14.63;;;7.93;;
24735;SDS011;12840;48.144;17.136;2023-01-29T06:09:27;13.90;;;7.87;;
24735;SDS011;12840;48.144;17.136;2023-01-29T06:11:56;11.63;;;6.83;;
24735;SDS011;12840;48.144;17.136;2023-01-29T06:14:24;14.40;;;7.73;;
24735;SDS011;12840;48.144;17.136;2023-01-29T06:16:51;11.70;;;7.03;;
24735;SDS011;12840;48.144;17.136;2023-01-29T06:19:19;13.47;;;7.53;;
24735;SDS011;12840;48.144;17.136;2023-01-29T06:21:46;11.10;;;6.57;;
24735;SDS011;12840;48.144;17.136;2023-01-29T06:24:14;12.53;;;7.40;;
24735;SDS011;12840;48.144;17.136;2023-01-29T06:26:41;10.87;;;6.87;;
24735;SDS011;12840;48.144;17.136;2023-01-29T06:29:10;10.87;;;6.83;;
24735;SDS011;12840;48.144;17.136;2023-01-29T06:31:38;11.03;;;7.00;;
24735;SDS011;12840;48.144;17.136;2023-01-29T06:34:05;12.00;;;7.33;;
24735;SDS011;12840;48.144;17.136;2023-01-29T06:36:33;12.87;;;7.53;;
24735;SDS011;12840;48.144;17.136;2023-01-29T06:39:01;13.17;;;7.70;;
24735;SDS011;12840;48.144;17.136;2023-01-29T06:41:28;11.40;;;6.67;;
24735;SDS011;12840;48.144;17.136;2023-01-29T06:43:56;12.03;;;6.90;;
24735;SDS011;12840;48.144;17.136;2023-01-29T06:46:25;10.07;;;6.10;;
24735;SDS011;12840;48.144;17.136;2023-01-29T06:48:52;9.00;;;5.87;;
24735;SDS011;12840;48.144;17.136;2023-01-29T06:51:20;11.47;;;6.63;;
24735;SDS011;12840;48.144;17.136;2023-01-29T06:53:47;11.37;;;6.83;;
24735;SDS011;12840;48.144;17.136;2023-01-29T06:56:15;10.70;;;6.80;;
24735;SDS011;12840;48.144;17.136;2023-01-29T06:58:42;10.87;;;6.80;;
24735;SDS011;12840;48.144;17.136;2023-01-29T07:01:10;10.57;;;6.57;;
24735;SDS011;12840;48.144;17.136;2023-01-29T07:03:39;9.40;;;6.13;;
24735;SDS011;12840;48.144;17.136;2023-01-29T07:06:07;10.00;;;6.20;;
24735;SDS011;12840;48.144;17.136;2023-01-29T07:08:36;11.57;;;6.50;;
24735;SDS011;12840;48.144;17.136;2023-01-29T07:11:04;8.97;;;5.97;;
24735;SDS011;12840;48.144;17.136;2023-01-29T07:13:31;9.33;;;5.87;;
24735;SDS011;12840;48.144;17.136;2023-01-29T07:15:59;9.87;;;6.40;;
24735;SDS011;12840;48.144;17.136;2023-01-29T07:18:27;9.93;;;6.30;;
24735;SDS011;12840;48.144;17.136;2023-01-29T07:20:56;9.27;;;5.50;;
24735;SDS011;12840;48.144;17.136;2023-01-29T07:23:23;10.97;;;5.77;;
24735;SDS011;12840;48.144;17.136;2023-01-29T07:25:51;9.57;;;5.60;;
24735;SDS011;12840;48.144;17.136;2023-01-29T07:28:19;10.53;;;5.73;;
24735;SDS011;12840;48.144;17.136;2023-01-29T07:30:46;12.00;;;6.73;;
24735;SDS011;12840;48.144;17.136;2023-01-29T07:33:14;10.33;;;6.30;;
24735;SDS011;12840;48.144;17.136;2023-01-29T07:35:41;9.70;;;5.90;;
24735;SDS011;12840;48.144;17.136;2023-01-29T07:38:10;11.23;;;6.20;;
24735;SDS011;12840;48.144;17.136;2023-01-29T07:40:38;8.57;;;6.03;;
24735;SDS011;12840;48.144;17.136;2023-01-29T07:43:06;9.47;;;5.83;;
24735;SDS011;12840;48.144;17.136;2023-01-29T07:45:35;9.17;;;5.90;;
24735;SDS011;12840;48.144;17.136;2023-01-29T07:48:03;8.57;;;5.67;;
24735;SDS011;12840;48.144;17.136;2023-01-29T07:50:31;10.60;;;5.87;;
24735;SDS011;12840;48.144;17.136;2023-01-29T07:52:58;9.53;;;5.50;;
24735;SDS011;12840;48.144;17.136;2023-01-29T07:55:27;9.40;;;5.80;;
24735;SDS011;12840;48.144;17.136;2023-01-29T07:57:55;9.57;;;5.80;;
24735;SDS011;12840;48.144;17.136;2023-01-29T08:00:23;8.40;;;5.80;;
24735;SDS011;12840;48.144;17.136;2023-01-29T08:02:50;10.33;;;6.77;;
24735;SDS011;12840;48.144;17.136;2023-01-29T08:05:18;10.97;;;6.73;;
24735;SDS011;12840;48.144;17.136;2023-01-29T08:07:48;9.70;;;6.60;;
24735;SDS011;12840;48.144;17.136;2023-01-29T08:10:18;10.63;;;6.30;;
24735;SDS011;12840;48.144;17.136;2023-01-29T08:12:47;10.47;;;6.07;;
24735;SDS011;12840;48.144;17.136;2023-01-29T08:15:19;8.83;;;5.67;;
24735;SDS011;12840;48.144;17.136;2023-01-29T08:17:47;9.93;;;5.83;;
24735;SDS011;12840;48.144;17.136;2023-01-29T08:20:14;10.63;;;5.87;;
24735;SDS011;12840;48.144;17.136;2023-01-29T08:22:42;10.83;;;5.93;;
24735;SDS011;12840;48.144;17.136;2023-01-29T08:25:09;7.73;;;5.60;;
24735;SDS011;12840;48.144;17.136;2023-01-29T08:27:37;8.50;;;5.33;;
24735;SDS011;12840;48.144;17.136;2023-01-29T08:30:07;9.87;;;5.27;;
24735;SDS011;12840;48.144;17.136;2023-01-29T08:32:35;12.80;;;6.20;;
24735;SDS011;12840;48.144;17.136;2023-01-29T08:35:03;8.67;;;5.67;;
24735;SDS011;12840;48.144;17.136;2023-01-29T08:37:30;8.37;;;5.40;;
24735;SDS011;12840;48.144;17.136;2023-01-29T08:39:58;10.83;;;5.90;;
24735;SDS011;12840;48.144;17.136;2023-01-29T08:42:25;8.77;;;5.43;;
24735;SDS011;12840;48.144;17.136;2023-01-29T08:44:53;8.57;;;5.20;;
24735;SDS011;12840;48.144;17.136;2023-01-29T08:47:22;8.90;;;5.77;;
24735;SDS011;12840;48.144;17.136;2023-01-29T08:49:49;8.63;;;5.70;;
24735;SDS011;12840;48.144;17.136;2023-01-29T08:52:17;10.43;;;5.77;;
24735;SDS011;12840;48.144;17.136;2023-01-29T08:54:44;8.20;;;5.57;;
24735;SDS011;12840;48.144;17.136;2023-01-29T08:57:12;10.63;;;5.97;;
24735;SDS011;12840;48.144;17.136;2023-01-29T08:59:39;9.30;;;5.83;;
24735;SDS011;12840;48.144;17.136;2023-01-29T09:02:07;10.40;;;5.87;;
24735;SDS011;12840;48.144;17.136;2023-01-29T09:04:36;10.17;;;6.00;;
24735;SDS011;12840;48.144;17.136;2023-01-29T09:07:04;7.03;;;5.23;;
24735;SDS011;12840;48.144;17.136;2023-01-29T09:09:31;8.37;;;5.77;;
24735;SDS011;12840;48.144;17.136;2023-01-29T09:11:59;7.97;;;5.10;;
24735;SDS011;12840;48.144;17.136;2023-01-29T09:14:26;8.20;;;5.53;;
24735;SDS011;12840;48.144;17.136;2023-01-29T09:16:54;10.30;;;5.70;;
24735;SDS011;12840;48.144;17.136;2023-01-29T09:19:21;10.00;;;5.63;;
24735;SDS011;12840;48.144;17.136;2023-01-29T09:21:50;8.40;;;5.50;;
24735;SDS011;12840;48.144;17.136;2023-01-29T09:24:18;7.23;;;5.13;;
24735;SDS011;12840;48.144;17.136;2023-01-29T09:26:45;9.73;;;5.50;;
24735;SDS011;12840;48.144;17.136;2023-01-29T09:29:13;7.73;;;5.37;;
24735;SDS011;12840;48.144;17.136;2023-01-29T09:31:40;8.93;;;5.60;;
24735;SDS011;12840;48.144;17.136;2023-01-29T09:34:08;8.87;;;6.13;;
24735;SDS011;12840;48.144;17.136;2023-01-29T09:36:35;8.83;;;6.07;;
24735;SDS011;12840;48.144;17.136;2023-01-29T09:39:04;8.73;;;5.87;;
24735;SDS011;12840;48.144;17.136;2023-01-29T09:41:36;9.60;;;6.37;;
24735;SDS011;12840;48.144;17.136;2023-01-29T09:44:10;8.47;;;5.87;;
24735;SDS011;12840;48.144;17.136;2023-01-29T09:46:39;9.20;;;5.87;;
24735;SDS011;12840;48.144;17.136;2023-01-29T09:49:09;11.57;;;5.97;;
24735;SDS011;12840;48.144;17.136;2023-01-29T09:51:39;9.17;;;6.40;;
24735;SDS011;12840;48.144;17.136;2023-01-29T09:54:13;8.87;;;6.60;;
24735;SDS011;12840;48.144;17.136;2023-01-29T09:56:43;9.20;;;6.30;;
24735;SDS011;12840;48.144;17.136;2023-01-29T09:59:12;7.20;;;5.70;;
24735;SDS011;12840;48.144;17.136;2023-01-29T10:01:43;8.10;;;6.20;;
24735;SDS011;12840;48.144;17.136;2023-01-29T10:04:17;7.50;;;5.93;;
24735;SDS011;12840;48.144;17.136;2023-01-29T10:06:53;8.90;;;6.53;;
24735;SDS011;12840;48.144;17.136;2023-01-29T10:09:34;9.83;;;6.10;;
24735;SDS011;12840;48.144;17.136;2023-01-29T10:12:11;9.57;;;6.60;;
24735;SDS011;12840;48.144;17.136;2023-01-29T10:14:43;8.87;;;6.00;;
24735;SDS011;12840;48.144;17.136;2023-01-29T10:17:18;8.33;;;6.27;;
24735;SDS011;12840;48.144;17.136;2023-01-29T10:22:36;8.90;;;6.90;;
24735;SDS011;12840;48.144;17.136;2023-01-29T10:25:10;8.93;;;6.60;;
24735;SDS011;12840;48.144;17.136;2023-01-29T10:27:40;8.03;;;6.60;;
24735;SDS011;12840;48.144;17.136;2023-01-29T10:30:17;8.37;;;6.90;;
24735;SDS011;12840;48.144;17.136;2023-01-29T10:32:47;8.30;;;6.63;;
24735;SDS011;12840;48.144;17.136;2023-01-29T10:35:16;8.60;;;6.53;;
24735;SDS011;12840;48.144;17.136;2023-01-29T10:37:47;10.73;;;6.87;;
24735;SDS011;12840;48.144;17.136;2023-01-29T10:40:18;10.47;;;7.07;;
24735;SDS011;12840;48.144;17.136;2023-01-29T10:42:47;10.77;;;7.30;;
24735;SDS011;12840;48.144;17.136;2023-01-29T10:45:19;8.60;;;6.90;;
24735;SDS011;12840;48.144;17.136;2023-01-29T10:47:54;9.87;;;7.33;;
24735;SDS011;12840;48.144;17.136;2023-01-29T10:50:33;9.53;;;6.37;;
24735;SDS011;12840;48.144;17.136;2023-01-29T10:53:15;10.37;;;7.47;;
24735;SDS011;12840;48.144;17.136;2023-01-29T10:55:49;8.60;;;6.60;;
24735;SDS011;12840;48.144;17.136;2023-01-29T10:58:23;9.50;;;7.17;;
24735;SDS011;12840;48.144;17.136;2023-01-29T11:00:54;12.30;;;8.13;;
24735;SDS011;12840;48.144;17.136;2023-01-29T11:03:22;10.97;;;7.03;;
24735;SDS011;12840;48.144;17.136;2023-01-29T11:05:51;10.00;;;7.40;;
24735;SDS011;12840;48.144;17.136;2023-01-29T11:08:20;9.77;;;6.90;;
24735;SDS011;12840;48.144;17.136;2023-01-29T11:10:53;11.53;;;6.83;;
24735;SDS011;12840;48.144;17.136;2023-01-29T11:13:21;9.20;;;6.70;;
24735;SDS011;12840;48.144;17.136;2023-01-29T11:15:50;10.80;;;6.93;;
24735;SDS011;12840;48.144;17.136;2023-01-29T11:18:18;11.50;;;7.37;;
24735;SDS011;12840;48.144;17.136;2023-01-29T11:20:45;9.70;;;6.97;;
24735;SDS011;12840;48.144;17.136;2023-01-29T11:23:26;11.73;;;7.20;;
24735;SDS011;12840;48.144;17.136;2023-01-29T11:25:55;9.93;;;6.90;;
24735;SDS011;12840;48.144;17.136;2023-01-29T11:28:39;14.17;;;7.70;;
24735;SDS011;12840;48.144;17.136;2023-01-29T11:31:16;10.90;;;7.43;;
24735;SDS011;12840;48.144;17.136;2023-01-29T11:33:44;10.17;;;6.97;;
24735;SDS011;12840;48.144;17.136;2023-01-29T11:36:18;12.37;;;7.23;;
24735;SDS011;12840;48.144;17.136;2023-01-29T11:38:46;10.77;;;6.93;;
24735;SDS011;12840;48.144;17.136;2023-01-29T11:41:15;11.93;;;7.10;;
24735;SDS011;12840;48.144;17.136;2023-01-29T11:43:46;12.37;;;7.37;;
24735;SDS011;12840;48.144;17.136;2023-01-29T11:46:14;10.50;;;7.13;;
24735;SDS011;12840;48.144;17.136;2023-01-29T11:48:42;11.97;;;6.93;;
24735;SDS011;12840;48.144;17.136;2023-01-29T11:51:11;11.93;;;7.23;;
24735;SDS011;12840;48.144;17.136;2023-01-29T11:53:40;11.90;;;7.40;;
24735;SDS011;12840;48.144;17.136;2023-01-29T11:56:17;10.83;;;6.60;;
24735;SDS011;12840;48.144;17.136;2023-01-29T11:58:46;14.50;;;8.57;;
24735;SDS011;12840;48.144;17.136;2023-01-29T12:01:15;11.03;;;7.50;;
24735;SDS011;12840;48.144;17.136;2023-01-29T12:03:44;10.40;;;7.30;;
24735;SDS011;12840;48.144;17.136;2023-01-29T12:06:18;14.53;;;8.17;;
24735;SDS011;12840;48.144;17.136;2023-01-29T12:08:52;11.70;;;7.57;;
24735;SDS011;12840;48.144;17.136;2023-01-29T12:11:24;10.80;;;6.80;;
24735;SDS011;12840;48.144;17.136;2023-01-29T12:13:54;12.23;;;7.07;;
24735;SDS011;12840;48.144;17.136;2023-01-29T12:16:22;11.80;;;7.47;;
24735;SDS011;12840;48.144;17.136;2023-01-29T12:18:52;11.33;;;7.50;;
24735;SDS011;12840;48.144;17.136;2023-01-29T12:21:22;13.63;;;7.37;;
24735;SDS011;12840;48.144;17.136;2023-01-29T12:23:54;13.57;;;8.03;;
24735;SDS011;12840;48.144;17.136;2023-01-29T12:26:26;11.57;;;7.80;;
24735;SDS011;12840;48.144;17.136;2023-01-29T12:28:58;13.23;;;7.53;;
24735;SDS011;12840;48.144;17.136;2023-01-29T12:31:32;10.77;;;7.17;;
24735;SDS011;12840;48.144;17.136;2023-01-29T12:34:04;10.10;;;6.70;;
24735;SDS011;12840;48.144;17.136;2023-01-29T12:36:33;10.97;;;7.07;;
24735;SDS011;12840;48.144;17.136;2023-01-29T12:39:04;11.80;;;7.70;;
24735;SDS011;12840;48.144;17.136;2023-01-29T12:41:35;13.43;;;8.43;;
24735;SDS011;12840;48.144;17.136;2023-01-29T12:44:06;11.63;;;7.93;;
24735;SDS011;12840;48.144;17.136;2023-01-29T12:46:37;12.80;;;8.07;;
24735;SDS011;12840;48.144;17.136;2023-01-29T12:49:09;13.00;;;7.80;;
24735;SDS011;12840;48.144;17.136;2023-01-29T12:51:39;10.50;;;6.90;;
24735;SDS011;12840;48.144;17.136;2023-01-29T12:54:09;12.43;;;8.00;;
24735;SDS011;12840;48.144;17.136;2023-01-29T12:56:39;14.37;;;8.20;;
24735;SDS011;12840;48.144;17.136;2023-01-29T12:59:12;12.60;;;8.23;;
24735;SDS011;12840;48.144;17.136;2023-01-29T13:01:44;12.77;;;7.90;;
24735;SDS011;12840;48.144;17.136;2023-01-29T13:04:15;12.90;;;8.03;;
24735;SDS011;12840;48.144;17.136;2023-01-29T13:06:45;11.23;;;7.87;;
24735;SDS011;12840;48.144;17.136;2023-01-29T13:09:18;11.73;;;7.70;;
24735;SDS011;12840;48.144;17.136;2023-01-29T13:11:49;13.73;;;8.20;;
24735;SDS011;12840;48.144;17.136;2023-01-29T13:14:18;13.80;;;7.90;;
24735;SDS011;12840;48.144;17.136;2023-01-29T13:16:48;14.20;;;8.47;;
24735;SDS011;12840;48.144;17.136;2023-01-29T13:19:19;13.23;;;8.07;;
24735;SDS011;12840;48.144;17.136;2023-01-29T13:21:48;13.10;;;8.17;;
24735;SDS011;12840;48.144;17.136;2023-01-29T13:24:17;13.43;;;8.30;;
24735;SDS011;12840;48.144;17.136;2023-01-29T13:26:46;13.30;;;7.73;;
24735;SDS011;12840;48.144;17.136;2023-01-29T13:29:20;11.87;;;7.43;;
24735;SDS011;12840;48.144;17.136;2023-01-29T13:31:48;12.97;;;7.73;;
24735;SDS011;12840;48.144;17.136;2023-01-29T13:34:18;11.87;;;7.53;;
24735;SDS011;12840;48.144;17.136;2023-01-29T13:36:48;15.30;;;8.53;;
24735;SDS011;12840;48.144;17.136;2023-01-29T13:39:18;12.67;;;8.00;;
24735;SDS011;12840;48.144;17.136;2023-01-29T13:41:46;13.60;;;8.00;;
24735;SDS011;12840;48.144;17.136;2023-01-29T13:44:19;14.70;;;8.07;;
24735;SDS011;12840;48.144;17.136;2023-01-29T13:46:49;12.17;;;7.80;;
24735;SDS011;12840;48.144;17.136;2023-01-29T13:49:24;11.97;;;8.30;;
24735;SDS011;12840;48.144;17.136;2023-01-29T13:51:53;13.57;;;8.43;;
24735;SDS011;12840;48.144;17.136;2023-01-29T13:54:21;14.40;;;8.70;;
24735;SDS011;12840;48.144;17.136;2023-01-29T13:57:00;14.93;;;8.97;;
24735;SDS011;12840;48.144;17.136;2023-01-29T14:02:24;13.37;;;8.30;;
24735;SDS011;12840;48.144;17.136;2023-01-29T14:07:43;14.27;;;8.33;;
24735;SDS011;12840;48.144;17.136;2023-01-29T14:10:15;13.20;;;8.07;;
24735;SDS011;12840;48.144;17.136;2023-01-29T14:12:50;13.20;;;8.20;;
24735;SDS011;12840;48.144;17.136;2023-01-29T14:15:18;15.23;;;8.50;;
24735;SDS011;12840;48.144;17.136;2023-01-29T14:17:54;14.00;;;9.20;;
24735;SDS011;12840;48.144;17.136;2023-01-29T14:20:25;16.83;;;9.20;;
24735;SDS011;12840;48.144;17.136;2023-01-29T14:22:55;17.57;;;9.20;;
24735;SDS011;12840;48.144;17.136;2023-01-29T14:25:26;13.60;;;8.33;;
24735;SDS011;12840;48.144;17.136;2023-01-29T14:27:55;15.83;;;9.00;;
24735;SDS011;12840;48.144;17.136;2023-01-29T14:30:22;14.33;;;8.30;;
24735;SDS011;12840;48.144;17.136;2023-01-29T14:32:51;14.07;;;8.67;;
24735;SDS011;12840;48.144;17.136;2023-01-29T14:35:21;15.83;;;9.03;;
24735;SDS011;12840;48.144;17.136;2023-01-29T14:37:49;15.07;;;9.40;;
24735;SDS011;12840;48.144;17.136;2023-01-29T14:40:19;12.93;;;8.20;;
24735;SDS011;12840;48.144;17.136;2023-01-29T14:42:52;14.57;;;9.20;;
24735;SDS011;12840;48.144;17.136;2023-01-29T14:45:22;15.87;;;9.70;;
24735;SDS011;12840;48.144;17.136;2023-01-29T14:47:51;18.20;;;9.67;;
24735;SDS011;12840;48.144;17.136;2023-01-29T14:53:08;16.47;;;9.07;;
24735;SDS011;12840;48.144;17.136;2023-01-29T14:55:38;16.83;;;9.77;;